sensor_id;sensor_type;location;lat;lon;timestamp;pressure;altitude;pressure_sealevel;temperature;humidity
65557;BME280;52200;53.490;14.376;2023-04-01T00:01:01;99527.34;;;10.03;100.00
65557;BME280;52200;53.490;14.376;2023-04-01T00:03:27;99527.25;;;10.23;100.00
65557;BME280;52200;53.490;14.376;2023-04-01T00:05:55;99525.13;;;10.14;100.00
65557;BME280;52200;53.490;14.376;2023-04-01T00:08:21;99520.81;;;10.16;100.00
65557;BME280;52200;53.490;14.376;2023-04-01T00:10:46;99522.69;;;10.12;100.00
65557;BME280;52200;53.490;14.376;2023-04-01T00:13:12;99524.63;;;9.87;100.00
65557;BME280;52200;53.490;14.376;2023-04-01T00:15:37;99529.56;;;9.50;100.00
65557;BME280;52200;53.490;14.376;2023-04-01T00:18:03;99526.34;;;9.26;100.00
65557;BME280;52200;53.490;14.376;2023-04-01T00:20:29;99530.19;;;9.14;100.00
65557;BME280;52200;53.490;14.376;2023-04-01T00:22:55;99535.88;;;9.19;100.00
65557;BME280;52200;53.490;14.376;2023-04-01T00:25:21;99533.03;;;9.06;100.00
65557;BME280;52200;53.490;14.376;2023-04-01T00:27:47;99534.88;;;8.80;100.00
65557;BME280;52200;53.490;14.376;2023-04-01T00:30:12;99536.69;;;8.77;100.00
65557;BME280;52200;53.490;14.376;2023-04-01T00:32:38;99534.41;;;8.70;100.00
65557;BME280;52200;53.490;14.376;2023-04-01T00:35:04;99535.41;;;8.66;100.00
65557;BME280;52200;53.490;14.376;2023-04-01T00:37:29;99541.34;;;8.65;100.00
65557;BME280;52200;53.490;14.376;2023-04-01T00:39:55;99540.41;;;8.68;100.00
65557;BME280;52200;53.490;14.376;2023-04-01T00:42:20;99538.41;;;8.54;100.00
65557;BME280;52200;53.490;14.376;2023-04-01T00:44:51;99546.50;;;8.62;100.00
65557;BME280;52200;53.490;14.376;2023-04-01T00:47:17;99546.19;;;8.24;100.00
65557;BME280;52200;53.490;14.376;2023-04-01T00:49:46;99553.63;;;8.29;100.00
65557;BME280;52200;53.490;14.376;2023-04-01T00:52:16;99556.22;;;8.27;100.00
65557;BME280;52200;53.490;14.376;2023-04-01T00:54:45;99556.88;;;8.09;100.00
65557;BME280;52200;53.490;14.376;2023-04-01T00:57:32;99557.53;;;7.90;100.00
65557;BME280;52200;53.490;14.376;2023-04-01T00:59:59;99563.34;;;7.92;100.00
65557;BME280;52200;53.490;14.376;2023-04-01T01:02:24;99565.88;;;7.92;100.00
65557;BME280;52200;53.490;14.376;2023-04-01T01:04:50;99564.88;;;7.72;100.00
65557;BME280;52200;53.490;14.376;2023-04-01T01:07:52;99564.31;;;7.88;100.00
65557;BME280;52200;53.490;14.376;2023-04-01T01:10:33;99567.31;;;7.74;100.00
65557;BME280;52200;53.490;14.376;2023-04-01T01:15:59;99563.91;;;7.50;100.00
65557;BME280;52200;53.490;14.376;2023-04-01T01:18:42;99572.88;;;7.33;100.00
65557;BME280;52200;53.490;14.376;2023-04-01T01:24:17;99583.38;;;7.21;100.00
65557;BME280;52200;53.490;14.376;2023-04-01T01:27:02;99575.19;;;7.13;100.00
65557;BME280;52200;53.490;14.376;2023-04-01T01:37:40;99588.72;;;7.12;100.00
65557;BME280;52200;53.490;14.376;2023-04-01T01:40:10;99590.88;;;6.96;100.00
65557;BME280;52200;53.490;14.376;2023-04-01T01:42:39;99588.06;;;6.76;100.00
65557;BME280;52200;53.490;14.376;2023-04-01T01:45:07;99589.81;;;6.74;100.00
65557;BME280;52200;53.490;14.376;2023-04-01T01:47:35;99597.41;;;6.74;100.00
65557;BME280;52200;53.490;14.376;2023-04-01T01:50:01;99593.91;;;6.78;100.00
65557;BME280;52200;53.490;14.376;2023-04-01T01:52:28;99603.50;;;6.67;100.00
65557;BME280;52200;53.490;14.376;2023-04-01T01:54:55;99590.63;;;6.75;100.00
65557;BME280;52200;53.490;14.376;2023-04-01T01:57:28;99599.13;;;6.72;100.00
65557;BME280;52200;53.490;14.376;2023-04-01T01:59:58;99597.41;;;6.73;100.00
65557;BME280;52200;53.490;14.376;2023-04-01T02:02:26;99595.91;;;6.67;100.00
65557;BME280;52200;53.490;14.376;2023-04-01T02:04:53;99602.25;;;6.51;100.00
65557;BME280;52200;53.490;14.376;2023-04-01T02:07:24;99599.47;;;6.60;100.00
65557;BME280;52200;53.490;14.376;2023-04-01T02:09:51;99606.88;;;6.66;100.00
65557;BME280;52200;53.490;14.376;2023-04-01T02:12:19;99605.31;;;6.62;100.00
65557;BME280;52200;53.490;14.376;2023-04-01T02:15:03;99610.38;;;6.62;100.00
65557;BME280;52200;53.490;14.376;2023-04-01T02:17:32;99612.28;;;6.54;100.00
65557;BME280;52200;53.490;14.376;2023-04-01T02:20:15;99616.66;;;6.47;100.00
65557;BME280;52200;53.490;14.376;2023-04-01T02:22:46;99619.13;;;6.17;100.00
65557;BME280;52200;53.490;14.376;2023-04-01T02:25:15;99627.34;;;6.25;100.00
65557;BME280;52200;53.490;14.376;2023-04-01T02:27:43;99616.50;;;6.22;100.00
65557;BME280;52200;53.490;14.376;2023-04-01T02:30:11;99618.72;;;6.01;100.00
65557;BME280;52200;53.490;14.376;2023-04-01T02:32:38;99616.00;;;6.09;100.00
65557;BME280;52200;53.490;14.376;2023-04-01T02:35:14;99626.31;;;6.31;100.00
65557;BME280;52200;53.490;14.376;2023-04-01T02:37:42;99634.56;;;6.38;100.00
65557;BME280;52200;53.490;14.376;2023-04-01T02:40:12;99630.16;;;6.46;100.00
65557;BME280;52200;53.490;14.376;2023-04-01T02:42:38;99634.81;;;6.60;100.00
65557;BME280;52200;53.490;14.376;2023-04-01T02:45:04;99628.97;;;6.58;100.00
65557;BME280;52200;53.490;14.376;2023-04-01T02:47:30;99644.50;;;6.44;100.00
65557;BME280;52200;53.490;14.376;2023-04-01T02:49:56;99637.00;;;6.41;100.00
65557;BME280;52200;53.490;14.376;2023-04-01T02:52:24;99642.72;;;6.48;100.00
65557;BME280;52200;53.490;14.376;2023-04-01T02:54:50;99644.22;;;6.55;100.00
65557;BME280;52200;53.490;14.376;2023-04-01T02:57:15;99644.44;;;6.45;99.76
65557;BME280;52200;53.490;14.376;2023-04-01T02:59:40;99646.69;;;6.56;100.00
65557;BME280;52200;53.490;14.376;2023-04-01T03:02:06;99657.84;;;6.48;99.70
65557;BME280;52200;53.490;14.376;2023-04-01T03:04:32;99655.06;;;6.57;100.00
65557;BME280;52200;53.490;14.376;2023-04-01T03:06:57;99654.19;;;6.58;99.66
65557;BME280;52200;53.490;14.376;2023-04-01T03:09:22;99654.81;;;6.36;99.38
65557;BME280;52200;53.490;14.376;2023-04-01T03:11:48;99658.06;;;6.40;99.99
65557;BME280;52200;53.490;14.376;2023-04-01T03:14:13;99663.13;;;6.38;99.97
65557;BME280;52200;53.490;14.376;2023-04-01T03:16:38;99669.25;;;6.29;99.76
65557;BME280;52200;53.490;14.376;2023-04-01T03:19:04;99667.16;;;6.12;99.55
65557;BME280;52200;53.490;14.376;2023-04-01T03:21:29;99667.00;;;6.19;100.00
65557;BME280;52200;53.490;14.376;2023-04-01T03:23:55;99670.03;;;6.32;100.00
65557;BME280;52200;53.490;14.376;2023-04-01T03:26:20;99672.03;;;6.19;99.70
65557;BME280;52200;53.490;14.376;2023-04-01T03:28:46;99675.53;;;6.15;100.00
65557;BME280;52200;53.490;14.376;2023-04-01T03:31:12;99678.91;;;6.13;99.99
65557;BME280;52200;53.490;14.376;2023-04-01T03:33:37;99686.25;;;6.23;99.48
65557;BME280;52200;53.490;14.376;2023-04-01T03:36:03;99685.75;;;6.08;99.42
65557;BME280;52200;53.490;14.376;2023-04-01T03:38:32;99684.78;;;6.14;100.00
65557;BME280;52200;53.490;14.376;2023-04-01T03:40:57;99692.53;;;6.06;99.63
65557;BME280;52200;53.490;14.376;2023-04-01T03:43:23;99688.16;;;5.78;100.00
65557;BME280;52200;53.490;14.376;2023-04-01T03:45:50;99695.66;;;5.80;100.00
65557;BME280;52200;53.490;14.376;2023-04-01T03:48:17;99690.16;;;5.64;100.00
65557;BME280;52200;53.490;14.376;2023-04-01T03:50:42;99694.47;;;5.59;100.00
65557;BME280;52200;53.490;14.376;2023-04-01T03:53:08;99707.09;;;5.57;100.00
65557;BME280;52200;53.490;14.376;2023-04-01T03:55:36;99703.97;;;5.47;100.00
65557;BME280;52200;53.490;14.376;2023-04-01T03:58:01;99708.66;;;5.63;100.00
65557;BME280;52200;53.490;14.376;2023-04-01T04:00:28;99724.41;;;5.71;100.00
65557;BME280;52200;53.490;14.376;2023-04-01T04:02:54;99712.88;;;5.62;100.00
65557;BME280;52200;53.490;14.376;2023-04-01T04:05:22;99714.53;;;5.63;100.00
65557;BME280;52200;53.490;14.376;2023-04-01T04:07:47;99721.69;;;5.80;100.00
65557;BME280;52200;53.490;14.376;2023-04-01T04:10:13;99731.50;;;5.93;100.00
65557;BME280;52200;53.490;14.376;2023-04-01T04:12:38;99732.13;;;5.65;99.96
65557;BME280;52200;53.490;14.376;2023-04-01T04:15:04;99733.91;;;5.60;100.00
65557;BME280;52200;53.490;14.376;2023-04-01T04:17:29;99736.25;;;5.68;100.00
65557;BME280;52200;53.490;14.376;2023-04-01T04:19:54;99743.84;;;5.66;100.00
65557;BME280;52200;53.490;14.376;2023-04-01T04:22:20;99736.97;;;5.35;100.00
65557;BME280;52200;53.490;14.376;2023-04-01T04:24:45;99742.69;;;5.43;100.00
65557;BME280;52200;53.490;14.376;2023-04-01T04:27:10;99750.38;;;5.36;100.00
65557;BME280;52200;53.490;14.376;2023-04-01T04:29:36;99744.97;;;5.13;100.00
65557;BME280;52200;53.490;14.376;2023-04-01T04:32:01;99754.84;;;5.23;100.00
65557;BME280;52200;53.490;14.376;2023-04-01T04:34:27;99753.19;;;5.22;100.00
65557;BME280;52200;53.490;14.376;2023-04-01T04:36:52;99758.19;;;5.23;100.00
65557;BME280;52200;53.490;14.376;2023-04-01T04:39:17;99755.19;;;5.06;100.00
65557;BME280;52200;53.490;14.376;2023-04-01T04:41:43;99756.44;;;5.27;100.00
65557;BME280;52200;53.490;14.376;2023-04-01T04:44:08;99765.06;;;5.16;100.00
65557;BME280;52200;53.490;14.376;2023-04-01T04:46:33;99770.00;;;5.20;100.00
65557;BME280;52200;53.490;14.376;2023-04-01T04:48:59;99763.72;;;4.98;100.00
65557;BME280;52200;53.490;14.376;2023-04-01T04:51:24;99774.63;;;4.99;100.00
65557;BME280;52200;53.490;14.376;2023-04-01T04:53:50;99763.72;;;5.00;100.00
65557;BME280;52200;53.490;14.376;2023-04-01T04:56:21;99784.09;;;5.30;100.00
65557;BME280;52200;53.490;14.376;2023-04-01T04:58:47;99783.28;;;5.28;100.00
65557;BME280;52200;53.490;14.376;2023-04-01T05:01:14;99789.44;;;5.13;100.00
65557;BME280;52200;53.490;14.376;2023-04-01T05:03:41;99788.31;;;5.28;100.00
65557;BME280;52200;53.490;14.376;2023-04-01T05:06:09;99796.59;;;5.35;100.00
65557;BME280;52200;53.490;14.376;2023-04-01T05:08:35;99796.03;;;5.20;100.00
65557;BME280;52200;53.490;14.376;2023-04-01T05:11:01;99795.53;;;5.03;100.00
65557;BME280;52200;53.490;14.376;2023-04-01T05:13:27;99806.84;;;4.80;100.00
65557;BME280;52200;53.490;14.376;2023-04-01T05:15:53;99799.28;;;4.80;100.00
65557;BME280;52200;53.490;14.376;2023-04-01T05:18:19;99805.06;;;4.87;100.00
65557;BME280;52200;53.490;14.376;2023-04-01T05:20:49;99808.13;;;5.01;100.00
65557;BME280;52200;53.490;14.376;2023-04-01T05:23:15;99804.09;;;4.94;100.00
65557;BME280;52200;53.490;14.376;2023-04-01T05:25:40;99810.44;;;5.12;100.00
65557;BME280;52200;53.490;14.376;2023-04-01T05:28:06;99814.50;;;5.19;100.00
65557;BME280;52200;53.490;14.376;2023-04-01T05:30:31;99813.75;;;5.15;100.00
65557;BME280;52200;53.490;14.376;2023-04-01T05:32:56;99813.19;;;4.99;100.00
65557;BME280;52200;53.490;14.376;2023-04-01T05:35:23;99817.03;;;5.19;100.00
65557;BME280;52200;53.490;14.376;2023-04-01T05:37:49;99819.19;;;4.94;100.00
65557;BME280;52200;53.490;14.376;2023-04-01T05:40:14;99819.31;;;4.88;100.00
65557;BME280;52200;53.490;14.376;2023-04-01T05:42:39;99830.66;;;5.07;100.00
65557;BME280;52200;53.490;14.376;2023-04-01T05:45:05;99824.69;;;5.13;100.00
65557;BME280;52200;53.490;14.376;2023-04-01T05:47:31;99824.78;;;5.08;100.00
65557;BME280;52200;53.490;14.376;2023-04-01T05:49:56;99824.22;;;4.94;100.00
65557;BME280;52200;53.490;14.376;2023-04-01T05:52:21;99826.81;;;4.89;100.00
65557;BME280;52200;53.490;14.376;2023-04-01T05:54:47;99830.19;;;4.88;100.00
65557;BME280;52200;53.490;14.376;2023-04-01T05:57:12;99838.44;;;4.96;100.00
65557;BME280;52200;53.490;14.376;2023-04-01T05:59:37;99839.44;;;4.86;100.00
65557;BME280;52200;53.490;14.376;2023-04-01T06:02:03;99841.22;;;4.81;100.00
65557;BME280;52200;53.490;14.376;2023-04-01T06:04:33;99846.09;;;4.89;100.00
65557;BME280;52200;53.490;14.376;2023-04-01T06:06:59;99845.84;;;5.04;100.00
65557;BME280;52200;53.490;14.376;2023-04-01T06:09:29;99846.66;;;5.06;100.00
65557;BME280;52200;53.490;14.376;2023-04-01T06:17:44;99853.44;;;5.01;100.00
65557;BME280;52200;53.490;14.376;2023-04-01T06:22:58;99864.38;;;5.00;100.00
65557;BME280;52200;53.490;14.376;2023-04-01T06:42:28;99874.84;;;5.24;100.00
65557;BME280;52200;53.490;14.376;2023-04-01T06:50:37;99881.63;;;5.20;100.00
65557;BME280;52200;53.490;14.376;2023-04-01T06:56:08;99886.16;;;5.01;100.00
65557;BME280;52200;53.490;14.376;2023-04-01T06:58:39;99891.56;;;5.28;100.00
65557;BME280;52200;53.490;14.376;2023-04-01T07:01:32;99901.63;;;5.28;100.00
65557;BME280;52200;53.490;14.376;2023-04-01T07:03:57;99900.78;;;5.29;100.00
65557;BME280;52200;53.490;14.376;2023-04-01T07:06:42;99899.09;;;5.28;100.00
65557;BME280;52200;53.490;14.376;2023-04-01T07:09:14;99899.31;;;5.15;100.00
65557;BME280;52200;53.490;14.376;2023-04-01T07:11:40;99902.56;;;5.24;100.00
65557;BME280;52200;53.490;14.376;2023-04-01T07:17:06;99911.00;;;5.20;100.00
65557;BME280;52200;53.490;14.376;2023-04-01T07:19:45;99908.69;;;5.07;100.00
65557;BME280;52200;53.490;14.376;2023-04-01T07:22:24;99922.16;;;5.06;100.00
65557;BME280;52200;53.490;14.376;2023-04-01T07:24:53;99924.09;;;4.90;100.00
65557;BME280;52200;53.490;14.376;2023-04-01T07:27:19;99925.56;;;5.02;100.00
65557;BME280;52200;53.490;14.376;2023-04-01T07:29:44;99919.28;;;5.26;100.00
65557;BME280;52200;53.490;14.376;2023-04-01T07:32:39;99936.44;;;5.04;100.00
65557;BME280;52200;53.490;14.376;2023-04-01T07:36:13;99938.91;;;5.07;100.00
65557;BME280;52200;53.490;14.376;2023-04-01T07:38:14;99939.59;;;5.15;100.00
65557;BME280;52200;53.490;14.376;2023-04-01T07:40:56;99937.94;;;5.14;100.00
65557;BME280;52200;53.490;14.376;2023-04-01T07:43:37;99951.34;;;5.16;100.00
65557;BME280;52200;53.490;14.376;2023-04-01T07:46:38;99952.88;;;5.25;100.00
65557;BME280;52200;53.490;14.376;2023-04-01T07:49:17;99954.78;;;5.12;100.00
65557;BME280;52200;53.490;14.376;2023-04-01T07:52:12;99954.69;;;5.19;100.00
65557;BME280;52200;53.490;14.376;2023-04-01T07:54:56;99958.59;;;5.35;100.00
65557;BME280;52200;53.490;14.376;2023-04-01T08:00:24;99974.72;;;5.25;100.00
65557;BME280;52200;53.490;14.376;2023-04-01T08:05:57;99964.84;;;5.12;100.00
65557;BME280;52200;53.490;14.376;2023-04-01T08:08:39;99968.97;;;5.16;100.00
65557;BME280;52200;53.490;14.376;2023-04-01T08:16:11;99979.00;;;5.68;100.00
65557;BME280;52200;53.490;14.376;2023-04-01T08:21:38;99993.22;;;5.69;100.00
65557;BME280;52200;53.490;14.376;2023-04-01T08:26:57;99999.25;;;5.62;99.17
65557;BME280;52200;53.490;14.376;2023-04-01T08:29:36;100005.56;;;5.36;100.00
65557;BME280;52200;53.490;14.376;2023-04-01T08:32:28;100006.59;;;5.74;100.00
65557;BME280;52200;53.490;14.376;2023-04-01T08:37:35;100012.00;;;5.53;98.86
65557;BME280;52200;53.490;14.376;2023-04-01T08:56:54;100035.41;;;6.06;97.21
65557;BME280;52200;53.490;14.376;2023-04-01T09:07:29;100038.00;;;6.03;95.97
65557;BME280;52200;53.490;14.376;2023-04-01T09:19:20;100061.28;;;6.18;96.68
65557;BME280;52200;53.490;14.376;2023-04-01T09:28:16;100080.84;;;6.03;96.78
65557;BME280;52200;53.490;14.376;2023-04-01T09:36:46;100089.25;;;6.05;95.73
65557;BME280;52200;53.490;14.376;2023-04-01T09:45:46;100106.06;;;6.03;93.36
65557;BME280;52200;53.490;14.376;2023-04-01T09:48:24;100104.56;;;5.93;95.34
65557;BME280;52200;53.490;14.376;2023-04-01T10:13:17;100126.84;;;6.18;92.76
65557;BME280;52200;53.490;14.376;2023-04-01T10:15:57;100125.38;;;6.50;91.33
65557;BME280;52200;53.490;14.376;2023-04-01T10:26:59;100133.38;;;6.28;91.50
65557;BME280;52200;53.490;14.376;2023-04-01T10:35:53;100139.03;;;6.39;89.80
65557;BME280;52200;53.490;14.376;2023-04-01T10:41:15;100145.38;;;6.59;90.14
65557;BME280;52200;53.490;14.376;2023-04-01T10:44:10;100149.50;;;6.63;89.80
65557;BME280;52200;53.490;14.376;2023-04-01T10:49:43;100153.13;;;6.04;91.95
65557;BME280;52200;53.490;14.376;2023-04-01T10:52:22;100162.31;;;6.07;91.84
65557;BME280;52200;53.490;14.376;2023-04-01T11:14:24;100180.25;;;5.88;90.61
65557;BME280;52200;53.490;14.376;2023-04-01T11:23:04;100194.13;;;5.61;91.97
65557;BME280;52200;53.490;14.376;2023-04-01T11:37:29;100198.56;;;5.98;89.95
65557;BME280;52200;53.490;14.376;2023-04-01T11:40:17;100207.91;;;5.93;91.00
65557;BME280;52200;53.490;14.376;2023-04-01T11:48:12;100221.41;;;5.89;90.59
65557;BME280;52200;53.490;14.376;2023-04-01T12:05:22;100236.34;;;5.43;90.27
65557;BME280;52200;53.490;14.376;2023-04-01T12:08:10;100240.34;;;5.58;90.09
65557;BME280;52200;53.490;14.376;2023-04-01T12:13:29;100247.22;;;5.47;90.40
65557;BME280;52200;53.490;14.376;2023-04-01T12:19:17;100250.19;;;5.74;88.12
65557;BME280;52200;53.490;14.376;2023-04-01T12:27:42;100260.28;;;5.74;89.69
65557;BME280;52200;53.490;14.376;2023-04-01T12:34:36;100270.41;;;5.71;88.58
65557;BME280;52200;53.490;14.376;2023-04-01T12:39:44;100274.66;;;5.67;88.37
65557;BME280;52200;53.490;14.376;2023-04-01T12:50:43;100285.59;;;5.66;87.89
65557;BME280;52200;53.490;14.376;2023-04-01T12:56:14;100289.69;;;5.73;87.94
65557;BME280;52200;53.490;14.376;2023-04-01T12:59:20;100293.88;;;5.74;88.70
65557;BME280;52200;53.490;14.376;2023-04-01T13:05:20;100299.38;;;5.39;87.44
65557;BME280;52200;53.490;14.376;2023-04-01T13:07:56;100303.22;;;5.66;86.37
65557;BME280;52200;53.490;14.376;2023-04-01T13:10:41;100305.06;;;5.52;86.60
65557;BME280;52200;53.490;14.376;2023-04-01T13:13:32;100307.75;;;5.41;85.49
65557;BME280;52200;53.490;14.376;2023-04-01T13:16:14;100311.19;;;5.32;86.38
65557;BME280;52200;53.490;14.376;2023-04-01T13:21:27;100333.91;;;5.29;86.05
65557;BME280;52200;53.490;14.376;2023-04-01T13:24:09;100327.16;;;5.29;86.84
65557;BME280;52200;53.490;14.376;2023-04-01T13:38:18;100345.91;;;5.78;86.44
65557;BME280;52200;53.490;14.376;2023-04-01T13:59:44;100376.91;;;5.10;88.05
65557;BME280;52200;53.490;14.376;2023-04-01T14:07:46;100384.34;;;5.20;85.96
65557;BME280;52200;53.490;14.376;2023-04-01T14:18:33;100401.16;;;5.19;85.19
65557;BME280;52200;53.490;14.376;2023-04-01T14:21:55;100408.75;;;5.14;84.67
65557;BME280;52200;53.490;14.376;2023-04-01T14:24:08;100412.16;;;5.07;85.09
65557;BME280;52200;53.490;14.376;2023-04-01T14:29:30;100419.88;;;4.92;86.30
65557;BME280;52200;53.490;14.376;2023-04-01T14:35:35;100421.69;;;4.74;86.29
65557;BME280;52200;53.490;14.376;2023-04-01T14:38:08;100430.13;;;4.64;85.14
65557;BME280;52200;53.490;14.376;2023-04-01T14:40:55;100429.38;;;4.52;86.05
65557;BME280;52200;53.490;14.376;2023-04-01T14:43:36;100435.28;;;4.45;86.38
65557;BME280;52200;53.490;14.376;2023-04-01T14:48:51;100433.50;;;4.63;85.89
65557;BME280;52200;53.490;14.376;2023-04-01T14:54:03;100449.47;;;4.54;86.15
65557;BME280;52200;53.490;14.376;2023-04-01T14:56:44;100451.97;;;4.59;85.23
65557;BME280;52200;53.490;14.376;2023-04-01T14:59:26;100452.78;;;4.65;85.26
65557;BME280;52200;53.490;14.376;2023-04-01T15:24:06;100488.00;;;4.65;86.42
65557;BME280;52200;53.490;14.376;2023-04-01T15:26:51;100494.66;;;4.74;85.45
65557;BME280;52200;53.490;14.376;2023-04-01T15:32:18;100506.47;;;4.63;85.18
65557;BME280;52200;53.490;14.376;2023-04-01T15:35:01;100514.81;;;4.66;86.44
65557;BME280;52200;53.490;14.376;2023-04-01T15:40:20;100518.34;;;4.33;86.20
65557;BME280;52200;53.490;14.376;2023-04-01T15:48:31;100531.75;;;4.30;85.73
65557;BME280;52200;53.490;14.376;2023-04-01T15:53:37;100536.84;;;4.19;86.49
65557;BME280;52200;53.490;14.376;2023-04-01T15:56:19;100546.06;;;4.17;85.56
65557;BME280;52200;53.490;14.376;2023-04-01T16:19:03;100572.94;;;3.94;85.07
65557;BME280;52200;53.490;14.376;2023-04-01T16:21:44;100588.03;;;3.78;84.92
65557;BME280;52200;53.490;14.376;2023-04-01T16:27:25;100593.03;;;3.86;85.04
65557;BME280;52200;53.490;14.376;2023-04-01T16:30:01;100609.78;;;3.76;85.37
65557;BME280;52200;53.490;14.376;2023-04-01T16:35:28;100614.00;;;3.63;85.20
65557;BME280;52200;53.490;14.376;2023-04-01T16:38:07;100623.22;;;3.75;85.12
65557;BME280;52200;53.490;14.376;2023-04-01T16:43:30;100636.59;;;3.59;84.86
65557;BME280;52200;53.490;14.376;2023-04-01T16:51:44;100649.13;;;3.45;84.91
65557;BME280;52200;53.490;14.376;2023-04-01T16:57:03;100644.94;;;3.45;84.76
65557;BME280;52200;53.490;14.376;2023-04-01T16:59:38;100654.16;;;3.43;85.04
65557;BME280;52200;53.490;14.376;2023-04-01T17:04:44;100660.84;;;3.49;84.70
65557;BME280;52200;53.490;14.376;2023-04-01T17:07:31;100666.72;;;3.51;84.43
65557;BME280;52200;53.490;14.376;2023-04-01T17:20:59;100694.34;;;3.35;85.96
65557;BME280;52200;53.490;14.376;2023-04-01T17:28:57;100710.19;;;3.23;84.89
65557;BME280;52200;53.490;14.376;2023-04-01T17:31:51;100720.25;;;3.33;85.39
65557;BME280;52200;53.490;14.376;2023-04-01T17:37:30;100716.88;;;3.25;84.79
65557;BME280;52200;53.490;14.376;2023-04-01T17:40:17;100729.47;;;3.32;84.55
65557;BME280;52200;53.490;14.376;2023-04-01T17:42:57;100731.94;;;3.18;84.25
65557;BME280;52200;53.490;14.376;2023-04-01T17:45:33;100739.44;;;3.11;84.40
65557;BME280;52200;53.490;14.376;2023-04-01T17:54:08;100755.31;;;3.11;83.07
65557;BME280;52200;53.490;14.376;2023-04-01T17:56:45;100751.94;;;3.06;83.12
65557;BME280;52200;53.490;14.376;2023-04-01T17:59:36;100748.56;;;2.98;83.02
65557;BME280;52200;53.490;14.376;2023-04-01T18:02:30;100760.25;;;2.96;81.75
65557;BME280;52200;53.490;14.376;2023-04-01T18:05:11;100765.25;;;2.93;82.52
65557;BME280;52200;53.490;14.376;2023-04-01T18:07:56;100776.16;;;2.95;82.85
65557;BME280;52200;53.490;14.376;2023-04-01T18:10:41;100777.00;;;3.00;83.12
65557;BME280;52200;53.490;14.376;2023-04-01T18:23:46;100795.44;;;3.05;81.36
65557;BME280;52200;53.490;14.376;2023-04-01T18:26:33;100807.97;;;3.02;81.69
65557;BME280;52200;53.490;14.376;2023-04-01T18:32:15;100814.59;;;2.90;81.30
65557;BME280;52200;53.490;14.376;2023-04-01T18:34:52;100816.28;;;2.93;82.38
65557;BME280;52200;53.490;14.376;2023-04-01T18:40:23;100835.53;;;2.93;82.01
65557;BME280;52200;53.490;14.376;2023-04-01T18:43:12;100846.50;;;3.07;81.29
65557;BME280;52200;53.490;14.376;2023-04-01T18:51:14;100861.44;;;2.90;81.61
65557;BME280;52200;53.490;14.376;2023-04-01T18:53:50;100858.88;;;2.85;81.07
65557;BME280;52200;53.490;14.376;2023-04-01T18:56:35;100861.41;;;2.87;80.98
65557;BME280;52200;53.490;14.376;2023-04-01T18:59:06;100866.44;;;2.90;81.11
65557;BME280;52200;53.490;14.376;2023-04-01T19:07:00;100885.66;;;2.89;80.43
65557;BME280;52200;53.490;14.376;2023-04-01T19:09:32;100884.06;;;2.95;80.84
65557;BME280;52200;53.490;14.376;2023-04-01T19:14:53;100882.38;;;2.97;80.01
65557;BME280;52200;53.490;14.376;2023-04-01T19:17:32;100891.44;;;2.79;80.33
65557;BME280;52200;53.490;14.376;2023-04-01T19:20:22;100897.34;;;2.84;81.12
65557;BME280;52200;53.490;14.376;2023-04-01T19:25:27;100900.50;;;2.65;81.67
65557;BME280;52200;53.490;14.376;2023-04-01T19:30:59;100908.03;;;2.60;79.85
65557;BME280;52200;53.490;14.376;2023-04-01T19:36:42;100943.06;;;2.54;80.38
65557;BME280;52200;53.490;14.376;2023-04-01T19:39:34;100934.63;;;2.47;80.05
65557;BME280;52200;53.490;14.376;2023-04-01T19:42:40;100922.16;;;2.53;80.04
65557;BME280;52200;53.490;14.376;2023-04-01T19:48:04;100945.53;;;2.49;80.10
65557;BME280;52200;53.490;14.376;2023-04-01T19:50:35;100949.72;;;2.52;80.13
65557;BME280;52200;53.490;14.376;2023-04-01T19:53:13;100948.09;;;2.55;79.90
65557;BME280;52200;53.490;14.376;2023-04-01T20:01:14;100963.28;;;2.69;79.59
65557;BME280;52200;53.490;14.376;2023-04-01T20:04:03;100965.66;;;2.58;79.80
65557;BME280;52200;53.490;14.376;2023-04-01T20:09:53;100971.47;;;2.53;79.91
65557;BME280;52200;53.490;14.376;2023-04-01T20:12:28;100983.31;;;2.68;80.29
65557;BME280;52200;53.490;14.376;2023-04-01T20:14:57;100989.38;;;2.88;78.93
65557;BME280;52200;53.490;14.376;2023-04-01T20:17:43;100982.03;;;3.07;79.54
65557;BME280;52200;53.490;14.376;2023-04-01T20:25:38;101013.66;;;2.91;79.97
65557;BME280;52200;53.490;14.376;2023-04-01T20:28:29;101005.84;;;2.62;80.01
65557;BME280;52200;53.490;14.376;2023-04-01T20:31:19;101009.06;;;2.51;80.64
65557;BME280;52200;53.490;14.376;2023-04-01T20:39:10;101030.03;;;2.58;80.35
65557;BME280;52200;53.490;14.376;2023-04-01T20:44:46;101031.97;;;2.82;79.68
65557;BME280;52200;53.490;14.376;2023-04-01T20:50:19;101033.63;;;2.79;80.69
65557;BME280;52200;53.490;14.376;2023-04-01T20:56:10;101044.31;;;2.64;80.23
65557;BME280;52200;53.490;14.376;2023-04-01T21:07:24;101055.44;;;2.89;80.30
65557;BME280;52200;53.490;14.376;2023-04-01T21:13:02;101060.13;;;2.56;79.89
65557;BME280;52200;53.490;14.376;2023-04-01T21:15:50;101054.31;;;2.61;80.17
65557;BME280;52200;53.490;14.376;2023-04-01T21:18:45;101057.69;;;2.66;80.02
65557;BME280;52200;53.490;14.376;2023-04-01T21:29:06;101066.03;;;2.62;79.28
65557;BME280;52200;53.490;14.376;2023-04-01T21:31:58;101059.31;;;2.57;79.57
65557;BME280;52200;53.490;14.376;2023-04-01T21:34:48;101062.72;;;2.66;78.98
65557;BME280;52200;53.490;14.376;2023-04-01T21:37:31;101077.75;;;2.63;78.69
65557;BME280;52200;53.490;14.376;2023-04-01T21:48:43;101089.34;;;2.54;78.80
65557;BME280;52200;53.490;14.376;2023-04-01T21:51:39;101096.94;;;2.59;78.55
65557;BME280;52200;53.490;14.376;2023-04-01T21:57:27;101101.16;;;2.65;78.63
65557;BME280;52200;53.490;14.376;2023-04-01T22:00:25;101106.16;;;2.62;78.31